Dades de l'estació automàtica Ulldecona - els Valentins

?
?
Resum diari 22:30 TU
Dades diàries de l'estació meteorològica
Temperatura mitjana 20.1 °C
Temperatura màxima 27.0 °C 12:23 TU
Temperatura mínima 13.5 °C 6:01 TU
Humitat relativa mitjana 79%
Precipitació acumulada 0.3 mm
Ratxa màxima del vent (2 m) 19.1 km/h - 120º 13:29 TU
Irradiació solar global 14.8 MJ/m2

El tram horari està expressat en Temps Universal (TU). Cal sumar una hora en horari d'hivern i dues en horari d'estiu per passar a l'hora oficial.

Ulldecona - els Valentins

Metadades estació meteorol´gica
Municipi Ulldecona
Comarca Montsià
Altitud 210 m
Data alta 15.11.1990
Estat actual Operativa
Dades de període
Període
TU
TM
°C
TX
°C
TN
°C
HRM
%
PPT
mm
VVM (2 m)
km/h
DVM (2 m)
graus
VVX (2 m)
km/h
RS
W/m2
00:00 - 00:30 14.7 15.0 14.4 94 0.0 1.1 287 3.6 0
00:30 - 01:00 14.3 14.4 14.1 96 0.0 1.4 288 5.4 0
01:00 - 01:30 14.2 14.2 14.1 96 0.0 1.1 291 4.7 0
01:30 - 02:00 14.1 14.2 14.1 95 0.0 1.1 282 4.0 0
02:00 - 02:30 14.1 14.2 14.0 95 0.0 1.8 280 5.4 0
02:30 - 03:00 14.0 14.1 13.8 95 0.0 1.1 267 3.2 0
03:00 - 03:30 13.8 13.9 13.7 95 0.0 1.1 269 3.2 0
03:30 - 04:00 13.7 13.8 13.6 95 0.0 1.8 288 5.0 0
04:00 - 04:30 13.7 13.7 13.6 95 0.0 1.4 264 3.6 0
04:30 - 05:00 13.7 13.8 13.6 95 0.0 1.4 280 4.0 0
05:00 - 05:30 13.6 13.7 13.5 95 0.0 1.1 282 5.0 0
05:30 - 06:00 13.5 13.6 13.5 95 0.0 1.1 267 4.0 4
06:00 - 06:30 13.9 14.5 13.5 94 0.0 1.8 277 6.5 46
06:30 - 07:00 15.4 16.8 14.5 90 0.0 1.4 300 4.7 132
07:00 - 07:30 18.6 20.0 17.0 80 0.0 1.1 278 3.6 249
07:30 - 08:00 21.2 22.1 20.1 68 0.0 1.1 90 3.6 327
08:00 - 08:30 22.8 23.5 22.2 62 0.0 2.2 130 4.7 453
08:30 - 09:00 23.7 24.2 23.1 56 0.0 1.1 140 4.3 442
09:00 - 09:30 24.4 24.8 24.0 57 0.0 1.4 40 6.8 395
09:30 - 10:00 25.6 26.2 25.0 55 0.0 2.9 51 8.3 654
10:00 - 10:30 26.1 26.6 25.3 54 0.0 5.8 117 14.4 579
10:30 - 11:00 25.6 26.2 25.2 59 0.0 7.9 124 15.8 657
11:00 - 11:30 26.1 26.9 25.4 55 0.0 4.7 134 12.6 523
11:30 - 12:00 25.8 26.1 25.5 56 0.0 3.2 152 9.4 382
12:00 - 12:30 26.5 27.0 26.0 55 0.0 5.0 147 13.3 711
12:30 - 13:00 25.9 26.5 25.4 57 0.0 6.1 145 17.3 467
13:00 - 13:30 25.1 25.6 24.8 62 0.0 9.4 133 19.1 500
13:30 - 14:00 25.1 25.7 24.6 66 0.0 8.6 130 18.4 600
14:00 - 14:30 23.9 24.9 22.8 74 0.0 2.2 189 7.9 117
14:30 - 15:00 22.7 23.3 22.2 85 0.3 1.8 2 7.2 346
15:00 - 15:30 23.2 23.6 22.9 76 0.0 2.5 318 7.6 240
15:30 - 16:00 23.4 23.6 23.2 71 0.0 1.8 228 5.8 99
16:00 - 16:30 23.4 23.5 23.3 73 0.0 1.1 220 5.4 107
16:30 - 17:00 24.0 24.5 23.4 68 0.0 1.1 246 4.7 135
17:00 - 17:30 23.5 24.4 22.6 71 0.0 0.7 194 3.2 36
17:30 - 18:00 22.2 22.5 21.8 80 0.0 0.7 219 3.6 8
18:00 - 18:30 21.7 21.9 21.5 82 0.0 2.2 240 5.4 0
18:30 - 19:00 21.5 21.8 21.2 82 0.0 1.4 238 3.6 0
19:00 - 19:30 20.5 21.1 20.1 87 0.0 1.4 265 3.6 0
19:30 - 20:00 19.8 20.0 19.7 87 0.0 1.8 277 4.7 0
20:00 - 20:30 20.4 20.8 19.9 82 0.0 2.2 253 6.5 0
20:30 - 21:00 19.9 20.3 19.8 84 0.0 1.1 261 2.9 0
21:00 - 21:30 19.3 19.8 18.6 87 0.0 0.4 130 2.9 0
21:30 - 22:00 18.2 18.6 18.0 92 0.0 0.7 261 2.9 0
22:00 - 22:30 18.4 18.5 18.2 86 0.0 1.8 258 5.4 0
22:30 - 23:00 17.9 18.2 17.7 87 0.0 1.1 263 2.9 0

Les dades en taronja només han passat un control de qualitat automàtic. Resta pendent la seva validació definitiva.